Latest Weather Observations for Hindmarsh Island

IDS60801

Issued at 9:01 pm CST Thursday 22 June 2017 (issued every 30 minutes, with the page automatically refreshed every 10 minutes)

About weather observations | Map of weather stations | Latest weather observations for SA | Other Formats
Station Details ID: 023894 Name: HINDMARSH ISLAND AWS Lat: -35.52 Lon: 138.82 Height: 11.0 m
Data from the previous 72 hours. | See also: Recent months at Hindmarsh Island
Date/Time
CST
Temp
°C
App
Temp
°C
Dew
Point
°C
Rel
Hum
%
Delta-T
°C
Wind Press
QNH
hPa
Press
MSL
hPa
Rain since
9am
mm
Dir  Spd
km/h
Gust
km/h
Spd
kts
Gust
kts
22/09:00pm 9.3 6.3 4.1 70 2.3 NNW 9 11 5 6 1021.2 1021.2 0.0
22/08:30pm 10.0 7.0 4.2 67 2.6 NNW 9 13 5 7 1021.1 1021.1 0.0
22/08:00pm 10.0 6.4 5.2 72 2.2 N 13 17 7 9 1021.3 1021.3 0.0
22/07:30pm 11.0 8.5 6.4 73 2.2 NE 9 11 5 6 1021.1 1021.1 0.0
22/07:00pm 12.5 11.1 7.4 71 2.5 SSW 4 6 2 3 1021.3 1021.3 0.0
22/06:30pm 12.8 11.3 7.0 68 2.8 W 4 7 2 4 1021.2 1021.2 0.0
22/06:00pm 12.8 10.8 6.2 64 3.1 NW 6 9 3 5 1021.2 1021.2 0.0
22/05:30pm 14.6 12.0 5.9 56 4.1 N 9 11 5 6 1021.2 1021.2 0.0
22/05:00pm 15.4 13.3 5.9 53 4.6 ENE 6 7 3 4 1021.4 1021.4 0.0
22/04:30pm 15.8 13.1 5.7 51 4.8 E 9 11 5 6 1021.3 1021.3 0.0
22/04:00pm 17.4 13.8 5.0 44 5.9 ENE 13 15 7 8 1021.4 1021.4 0.0
22/03:30pm 18.3 15.4 4.8 41 6.5 ENE 9 13 5 7 1021.4 1021.4 0.0
22/03:00pm 18.8 15.6 5.3 41 6.5 NNE 11 15 6 8 1021.3 1021.3 0.0
22/02:30pm 19.0 16.1 4.4 38 7.0 NE 9 15 5 8 1021.5 1021.5 0.0
22/02:00pm 18.6 15.3 4.8 40 6.6 NE 11 17 6 9 1021.9 1021.9 0.0
22/01:30pm 18.4 15.3 5.6 43 6.2 NNE 11 15 6 8 1022.4 1022.4 0.0
22/01:00pm 17.7 14.3 5.9 46 5.8 NNE 13 17 7 9 1023.0 1023.0 0.0
22/12:30pm 17.0 13.6 7.6 54 4.7 NE 15 17 8 9 1023.7 1023.7 0.0
22/12:00pm 15.9 12.2 6.3 53 4.6 NNE 15 19 8 10 1024.4 1024.4 0.0
22/11:30am 14.4 11.1 7.9 65 3.2 NE 15 19 8 10 1025.2 1025.2 0.0
22/11:00am 12.7 9.6 7.4 70 2.6 NNE 13 17 7 9 1025.7 1025.7 0.0
22/10:30am 11.6 8.5 7.3 75 2.1 NNE 13 19 7 10 1026.2 1026.2 0.0
22/10:00am 10.8 7.3 7.1 78 1.8 NE 15 19 8 10 1026.2 1026.2 0.0
22/09:30am 9.7 7.2 6.4 80 1.5 NNE 9 13 5 7 1026.5 1026.5 0.0
22/09:00am 8.7 6.5 6.3 85 1.1 NNE 7 11 4 6 1026.4 1026.4 0.2
22/08:30am 7.2 3.3 5.2 87 0.9 N 15 17 8 9 1026.5 1026.5 0.2
22/08:00am 6.5 1.7 4.5 87 0.9 N 19 22 10 12 1026.1 1026.1 0.2
22/07:30am 6.0 1.1 4.3 89 0.7 N 19 20 10 11 1026.0 1026.0 0.2
22/07:00am 6.1 1.8 5.4 95 0.3 N 17 20 9 11 1025.9 1025.9 0.2
22/06:30am 6.1 4.3 5.5 96 0.3 NNE 4 7 2 4 1025.9 1025.9 0.0
22/06:00am 6.7 3.0 6.1 96 0.3 NNE 15 20 8 11 1025.5 1025.5 0.0
22/05:30am 6.6 4.0 6.0 96 0.3 NE 9 11 5 6 1025.4 1025.4 0.0
22/05:00am 6.8 4.6 6.2 96 0.3 NE 7 9 4 5 1025.5 1025.5 0.0
22/04:30am 7.1 5.2 6.5 96 0.3 NNE 6 7 3 4 1025.5 1025.5 0.0
22/04:00am 6.8 4.2 6.2 96 0.3 ENE 9 11 5 6 1025.4 1025.4 0.0
22/03:30am 7.1 5.2 6.5 96 0.3 ENE 6 7 3 4 1025.7 1025.7 0.0
22/03:00am 8.0 6.1 7.4 96 0.3 N 7 11 4 6 1025.9 1025.9 0.0
22/02:30am 8.4 6.2 7.8 96 0.3 NE 9 11 5 6 1025.8 1025.8 0.0
22/02:00am 8.3 6.1 7.7 96 0.3 NE 9 11 5 6 1026.0 1026.0 0.0
22/01:30am 9.2 8.9 8.6 96 0.3 CALM 0 0 0 0 1025.9 1025.9 0.0
22/01:00am 9.9 8.6 9.3 96 0.3 N 6 9 3 5 1026.1 1026.1 0.0
22/12:30am 10.7 9.6 10.1 96 0.3 NNW 6 7 3 4 1026.3 1026.3 0.0
22/12:00am 10.9 10.3 10.3 96 0.3 N 4 7 2 4 1026.7 1026.7 0.0
 
Date/Time
CST
Temp
°C
App
Temp
°C
Dew
Point
°C
Rel
Hum
%
Delta-T
°C
Wind Press
QNH
hPa
Press
MSL
hPa
Rain since
9am
mm
Dir  Spd
km/h
Gust
km/h
Spd
kts
Gust
kts
21/11:30pm 10.6 8.6 10.0 96 0.3 N 11 15 6 8 1027.0 1027.0 0.0
21/11:00pm 10.5 9.2 9.9 96 0.3 N 7 11 4 6 1027.0 1027.0 0.0
21/10:30pm 10.0 8.6 9.4 96 0.3 N 7 9 4 5 1027.0 1027.0 0.0
21/10:00pm 9.8 7.5 9.0 95 0.4 N 11 13 6 7 1027.4 1027.4 0.0
21/09:30pm 10.2 8.3 9.1 93 0.5 NW 9 9 5 5 1027.6 1027.6 0.0
21/09:00pm 10.6 9.7 9.2 91 0.7 NNW 4 9 2 5 1027.6 1027.6 0.0
21/08:30pm 11.1 11.0 9.5 90 0.8 CALM 0 0 0 0 1027.7 1027.7 0.0
21/08:00pm 11.8 10.8 10.2 90 0.8 N 6 7 3 4 1027.6 1027.6 0.0
21/07:30pm 11.7 10.6 9.8 88 1.0 NNE 6 9 3 5 1027.4 1027.4 0.0
21/07:00pm 13.2 12.5 11.3 88 1.0 S 6 9 3 5 1027.3 1027.3 0.0
21/06:30pm 13.5 12.7 11.6 88 1.0 SSW 7 7 4 4 1027.1 1027.1 0.0
21/06:00pm 13.9 13.1 11.8 87 1.1 SSW 7 7 4 4 1026.9 1026.9 0.0
21/05:30pm 14.0 13.3 11.9 87 1.1 SSW 7 9 4 5 1026.8 1026.8 0.0
21/05:00pm 14.2 12.6 11.7 85 1.3 S 11 11 6 6 1026.8 1026.8 0.0
21/04:30pm 14.7 13.2 11.8 83 1.6 S 11 13 6 7 1026.7 1026.7 0.0
21/04:00pm 15.3 13.9 12.1 81 1.7 S 11 13 6 7 1026.8 1026.8 0.0
21/03:30pm 15.7 14.6 11.9 78 2.1 S 9 13 5 7 1026.7 1026.7 0.0
21/03:00pm 15.8 13.9 11.8 77 2.2 S 13 15 7 8 1026.6 1026.6 0.0
21/02:30pm 15.4 13.4 11.4 77 2.1 SSE 13 15 7 8 1026.4 1026.4 0.0
21/02:00pm 16.1 13.3 11.3 73 2.6 S 17 19 9 10 1026.5 1026.5 0.0
21/01:30pm 16.6 14.4 10.9 69 3.0 SSE 13 15 7 8 1027.1 1027.1 0.0
21/01:00pm 16.8 15.1 11.1 69 3.1 S 11 13 6 7 1027.3 1027.3 0.0
21/12:30pm 17.0 14.8 10.8 67 3.3 SSW 13 15 7 8 1027.5 1027.5 0.0
21/12:00pm 16.8 14.9 10.4 66 3.4 SSW 11 13 6 7 1027.9 1027.9 0.0
21/11:30am 16.4 15.1 10.0 66 3.3 SSW 7 9 4 5 1028.4 1028.4 0.0
21/11:00am 16.3 15.8 10.6 69 3.0 SSE 4 7 2 4 1028.7 1028.7 0.0
21/10:30am 15.4 14.2 10.4 72 2.6 SSE 7 7 4 4 1028.7 1028.7 0.0
21/10:00am 14.9 14.1 9.5 70 2.8 ESE 4 7 2 4 1028.7 1028.7 0.0
21/09:30am 13.5 12.1 8.8 73 2.3 NNE 6 7 3 4 1028.8 1028.8 0.0
21/09:00am 12.3 10.5 8.0 75 2.1 N 7 9 4 5 1028.5 1028.5 0.0
21/08:30am 10.9 8.6 7.4 79 1.7 NNW 9 11 5 6 1028.2 1028.2 0.0
21/08:00am 10.0 7.9 6.5 79 1.6 NNW 7 9 4 5 1028.0 1028.0 0.0
21/07:30am 9.6 7.0 6.3 80 1.5 N 9 13 5 7 1027.7 1027.7 0.0
21/07:00am 10.0 7.5 6.5 79 1.6 NNW 9 11 5 6 1027.6 1027.6 0.0
21/06:30am 9.8 6.9 6.5 80 1.5 NW 11 11 6 6 1027.4 1027.4 0.0
21/06:00am 10.4 7.9 6.5 77 1.8 NW 9 11 5 6 1027.4 1027.4 0.0
21/05:30am 9.8 6.8 6.2 78 1.7 NNW 11 13 6 7 1027.1 1027.1 0.0
21/05:00am 9.6 6.2 6.1 79 1.6 NNW 13 15 7 8 1026.8 1026.8 0.0
21/04:30am 9.4 6.4 6.1 80 1.5 NNW 11 11 6 6 1026.8 1026.8 0.0
21/04:00am 8.9 5.6 6.2 83 1.2 N 13 15 7 8 1026.7 1026.7 0.0
21/03:30am 9.3 6.7 6.2 81 1.4 N 9 11 5 6 1026.7 1026.7 0.0
21/03:00am 9.5 7.3 6.0 79 1.6 NNW 7 9 4 5 1026.7 1026.7 0.0
21/02:30am 9.8 7.3 6.5 80 1.5 NNW 9 11 5 6 1026.6 1026.6 0.0
21/02:00am 10.0 7.4 6.3 78 1.7 NNW 9 11 5 6 1026.5 1026.5 0.0
21/01:30am 10.3 7.4 6.5 77 1.8 NNW 11 13 6 7 1026.4 1026.4 0.0
21/01:00am 9.9 6.6 6.3 78 1.7 NNW 13 15 7 8 1026.2 1026.2 0.0
21/12:30am 9.9 6.9 5.9 76 1.8 N 11 13 6 7 1026.4 1026.4 0.0
21/12:00am 10.6 7.2 6.0 73 2.1 NNW 13 13 7 7 1026.3 1026.3 0.0
 
Date/Time
CST
Temp
°C
App
Temp
°C
Dew
Point
°C
Rel
Hum
%
Delta-T
°C
Wind Press
QNH
hPa
Press
MSL
hPa
Rain since
9am
mm
Dir  Spd
km/h
Gust
km/h
Spd
kts
Gust
kts
20/11:30pm 10.7 7.7 6.1 73 2.1 NNW 11 13 6 7 1026.4 1026.4 0.0
20/11:00pm 10.7 7.3 6.1 73 2.1 N 13 15 7 8 1026.4 1026.4 0.0
20/10:30pm 11.2 8.1 5.7 69 2.5 NW 11 13 6 7 1026.4 1026.4 0.0
20/10:00pm 11.3 8.3 5.8 69 2.6 NNW 11 13 6 7 1026.7 1026.7 0.0
20/09:30pm 11.4 8.0 5.7 68 2.6 NNW 13 15 7 8 1026.5 1026.5 0.0
20/09:00pm 11.9 8.5 5.8 66 2.8 NW 13 17 7 9 1026.4 1026.4 0.0
20/08:30pm 12.1 7.9 5.7 65 3.0 NW 17 17 9 9 1026.5 1026.5 0.0
20/08:00pm 12.2 8.8 5.8 65 3.0 NNW 13 17 7 9 1026.5 1026.5 0.0
20/07:30pm 12.8 9.4 5.9 63 3.2 NW 13 17 7 9 1026.4 1026.4 0.0
20/07:00pm 13.2 9.1 6.1 62 3.4 NW 17 19 9 10 1026.2 1026.2 0.0
20/06:30pm 13.6 9.9 6.2 61 3.5 NW 15 19 8 10 1025.9 1025.9 0.0
20/06:00pm 14.2 10.1 6.3 59 3.8 NW 17 20 9 11 1025.9 1025.9 0.0
20/05:30pm 14.6 10.5 6.4 58 3.9 NW 17 19 9 10 1025.6 1025.6 0.0
20/05:00pm 15.7 12.0 6.4 54 4.5 NW 15 19 8 10 1025.5 1025.5 0.0
20/04:30pm 16.4 12.3 6.0 50 5.0 WNW 17 20 9 11 1025.6 1025.6 0.0
20/04:00pm 17.0 12.1 5.3 46 5.6 WNW 20 26 11 14 1025.6 1025.6 0.0
20/03:30pm 18.2 13.8 4.7 41 6.4 WNW 17 24 9 13 1025.6 1025.6 0.0
20/03:00pm 18.7 14.3 4.5 39 6.8 WNW 17 22 9 12 1025.5 1025.5 0.0
20/02:30pm 18.7 13.7 4.5 39 6.8 WNW 20 28 11 15 1025.4 1025.4 0.0
20/02:00pm 19.0 14.0 4.7 39 6.9 WNW 20 32 11 17 1025.3 1025.3 0.0
20/01:30pm 19.0 13.1 4.0 37 7.1 WNW 24 33 13 18 1025.4 1025.4 0.0
20/01:00pm 19.1 14.2 4.1 37 7.1 WNW 19 28 10 15 1025.5 1025.5 0.0
20/12:30pm 18.9 14.5 5.0 40 6.7 NW 17 22 9 12 1025.7 1025.7 0.0
20/12:00pm 17.6 14.5 7.1 50 5.2 N 13 19 7 10 1026.1 1026.1 0.0
20/11:30am 16.8 13.6 6.9 52 4.9 N 13 17 7 9 1026.5 1026.5 0.0
20/11:00am 16.2 12.6 6.9 54 4.6 N 15 19 8 10 1026.9 1026.9 0.0
20/10:30am 15.5 12.9 7.8 60 3.8 N 11 13 6 7 1027.1 1027.1 0.0
20/10:00am 14.5 11.7 7.1 61 3.6 N 11 15 6 8 1027.2 1027.2 0.0
20/09:30am 13.6 9.7 6.9 64 3.2 N 17 22 9 12 1026.9 1026.9 0.0
20/09:00am 10.7 7.4 6.5 75 2.0 N 13 17 7 9 1026.8 1026.8 0.2
20/08:30am 9.1 6.1 6.2 82 1.3 N 11 13 6 7 1026.8 1026.8 0.2
20/08:00am 7.9 4.9 5.9 87 0.9 N 11 13 6 7 1026.7 1026.7 0.2
20/07:30am 7.0 4.1 4.8 86 1.0 NE 9 11 5 6 1026.7 1026.7 0.2
20/07:00am 7.5 5.6 5.1 85 1.1 ESE 4 9 2 5 1026.7 1026.7 0.2
20/06:30am 8.0 5.3 5.5 84 1.1 N 9 15 5 8 1026.5 1026.5 0.2
20/06:00am 7.0 4.6 5.3 89 0.7 ENE 7 7 4 4 1026.3 1026.3 0.2
20/05:30am 6.9 4.7 5.2 89 0.7 E 6 7 3 4 1026.1 1026.1 0.0
20/05:00am 7.3 5.9 5.4 88 0.8 E 2 6 1 3 1026.0 1026.0 0.0
20/04:30am 7.2 4.9 4.9 85 1.0 SE 6 7 3 4 1025.8 1025.8 0.0
20/04:00am 7.5 6.0 5.1 85 1.1 ENE 2 7 1 4 1026.1 1026.1 0.0
20/03:30am 7.4 5.5 4.9 84 1.1 W 4 9 2 5 1026.4 1026.4 0.0
20/03:00am 7.8 4.3 5.4 85 1.1 N 13 15 7 8 1026.6 1026.6 0.0
20/02:30am 8.0 4.2 5.8 86 1.0 N 15 17 8 9 1026.8 1026.8 0.0
20/02:00am 8.1 4.7 5.9 86 1.0 N 13 17 7 9 1027.0 1027.0 0.0
20/01:30am 8.1 5.0 5.6 84 1.1 NNE 11 13 6 7 1027.0 1027.0 0.0
20/01:00am 8.7 5.4 6.3 85 1.1 N 13 15 7 8 1027.2 1027.2 0.0
20/12:30am 8.8 6.3 6.4 85 1.1 N 9 11 5 6 1027.4 1027.4 0.0
20/12:00am 9.1 6.6 6.4 83 1.2 N 9 13 5 7 1027.7 1027.7 0.0
 
Date/Time
CST
Temp
°C
App
Temp
°C
Dew
Point
°C
Rel
Hum
%
Delta-T
°C
Wind Press
QNH
hPa
Press
MSL
hPa
Rain since
9am
mm
Dir  Spd
km/h
Gust
km/h
Spd
kts
Gust
kts
19/11:30pm 9.1 5.4 6.5 84 1.2 N 15 17 8 9 1027.7 1027.7 0.0
19/11:00pm 9.0 5.1 7.0 87 0.9 N 17 19 9 10 1027.8 1027.8 0.0
19/10:30pm 8.8 4.8 6.8 87 0.9 N 17 20 9 11 1028.0 1028.0 0.0
19/10:00pm 8.9 5.3 6.7 86 1.0 N 15 17 8 9 1028.1 1028.1 0.0
19/09:30pm 9.1 5.5 6.9 86 1.0 N 15 15 8 8 1028.5 1028.5 0.0

Other Formats:

Comma delimited format used in spreadsheet applications
http://www.bom.gov.au/fwo/IDS60801/IDS60801.94677.axf

JavaScript Object Notation format (JSON) in row-major order
http://www.bom.gov.au/fwo/IDS60801/IDS60801.94677.json